sensor_id;sensor_type;location;lat;lon;timestamp;P1;durP1;ratioP1;P2;durP2;ratioP2
27869;SDS011;15225;50.730;4.244;2023-04-07T18:46:53;12.63;;;6.50;;
27869;SDS011;15225;50.730;4.244;2023-04-07T18:49:19;21.08;;;11.15;;
27869;SDS011;15225;50.730;4.244;2023-04-07T18:51:44;13.50;;;5.35;;
27869;SDS011;15225;50.730;4.244;2023-04-07T18:54:12;10.07;;;4.32;;
27869;SDS011;15225;50.730;4.244;2023-04-07T18:56:38;10.63;;;3.65;;
27869;SDS011;15225;50.730;4.244;2023-04-07T18:59:03;16.25;;;4.65;;
27869;SDS011;15225;50.730;4.244;2023-04-07T19:01:31;12.00;;;4.20;;
27869;SDS011;15225;50.730;4.244;2023-04-07T19:03:56;13.18;;;3.70;;
27869;SDS011;15225;50.730;4.244;2023-04-07T19:06:22;7.97;;;3.42;;
27869;SDS011;15225;50.730;4.244;2023-04-07T19:08:48;13.57;;;3.30;;
27869;SDS011;15225;50.730;4.244;2023-04-07T19:11:15;6.25;;;2.55;;
27869;SDS011;15225;50.730;4.244;2023-04-07T19:13:41;7.95;;;3.15;;
27869;SDS011;15225;50.730;4.244;2023-04-07T19:16:07;7.68;;;2.10;;
27869;SDS011;15225;50.730;4.244;2023-04-07T19:18:32;8.43;;;2.80;;
27869;SDS011;15225;50.730;4.244;2023-04-07T19:20:58;6.10;;;2.35;;
27869;SDS011;15225;50.730;4.244;2023-04-07T19:23:25;4.78;;;2.40;;
27869;SDS011;15225;50.730;4.244;2023-04-07T19:25:51;8.63;;;3.20;;
27869;SDS011;15225;50.730;4.244;2023-04-07T19:28:17;6.28;;;2.38;;
27869;SDS011;15225;50.730;4.244;2023-04-07T19:30:42;12.27;;;2.65;;
27869;SDS011;15225;50.730;4.244;2023-04-07T19:33:08;7.40;;;2.72;;
27869;SDS011;15225;50.730;4.244;2023-04-07T19:35:35;5.78;;;2.42;;
27869;SDS011;15225;50.730;4.244;2023-04-07T19:38:03;6.60;;;2.70;;
27869;SDS011;15225;50.730;4.244;2023-04-07T19:40:29;8.77;;;2.25;;
27869;SDS011;15225;50.730;4.244;2023-04-07T19:42:57;14.77;;;4.90;;
27869;SDS011;15225;50.730;4.244;2023-04-07T19:45:23;8.27;;;3.00;;
27869;SDS011;15225;50.730;4.244;2023-04-07T19:47:49;10.10;;;2.67;;
27869;SDS011;15225;50.730;4.244;2023-04-07T19:50:15;10.13;;;3.40;;
27869;SDS011;15225;50.730;4.244;2023-04-07T19:52:41;10.32;;;3.80;;
27869;SDS011;15225;50.730;4.244;2023-04-07T19:55:09;9.95;;;3.85;;
27869;SDS011;15225;50.730;4.244;2023-04-07T19:57:35;10.35;;;3.75;;
27869;SDS011;15225;50.730;4.244;2023-04-07T20:00:01;10.10;;;4.25;;
27869;SDS011;15225;50.730;4.244;2023-04-07T20:02:28;19.60;;;4.93;;
27869;SDS011;15225;50.730;4.244;2023-04-07T20:04:54;14.60;;;3.70;;
27869;SDS011;15225;50.730;4.244;2023-04-07T20:07:19;12.98;;;4.22;;
27869;SDS011;15225;50.730;4.244;2023-04-07T20:09:46;16.90;;;4.68;;
27869;SDS011;15225;50.730;4.244;2023-04-07T20:12:14;7.97;;;4.18;;
27869;SDS011;15225;50.730;4.244;2023-04-07T20:14:41;9.68;;;4.05;;
27869;SDS011;15225;50.730;4.244;2023-04-07T20:17:07;12.35;;;4.72;;
27869;SDS011;15225;50.730;4.244;2023-04-07T20:19:33;14.30;;;4.80;;
27869;SDS011;15225;50.730;4.244;2023-04-07T20:21:59;13.77;;;4.50;;
27869;SDS011;15225;50.730;4.244;2023-04-07T20:24:24;8.18;;;4.63;;
27869;SDS011;15225;50.730;4.244;2023-04-07T20:26:51;11.73;;;5.20;;
27869;SDS011;15225;50.730;4.244;2023-04-07T20:29:16;14.77;;;5.53;;
27869;SDS011;15225;50.730;4.244;2023-04-07T20:31:42;16.52;;;5.47;;
27869;SDS011;15225;50.730;4.244;2023-04-07T20:34:08;15.65;;;5.13;;
27869;SDS011;15225;50.730;4.244;2023-04-07T20:36:33;14.30;;;5.45;;
27869;SDS011;15225;50.730;4.244;2023-04-07T20:38:59;15.77;;;4.78;;
27869;SDS011;15225;50.730;4.244;2023-04-07T20:41:25;14.05;;;4.75;;
27869;SDS011;15225;50.730;4.244;2023-04-07T20:43:51;14.32;;;5.82;;
27869;SDS011;15225;50.730;4.244;2023-04-07T20:46:18;16.23;;;5.30;;
27869;SDS011;15225;50.730;4.244;2023-04-07T20:48:45;15.93;;;6.25;;
27869;SDS011;15225;50.730;4.244;2023-04-07T20:51:11;12.10;;;5.03;;
27869;SDS011;15225;50.730;4.244;2023-04-07T20:53:37;31.60;;;12.77;;
27869;SDS011;15225;50.730;4.244;2023-04-07T20:56:03;32.42;;;12.10;;
27869;SDS011;15225;50.730;4.244;2023-04-07T20:58:29;18.48;;;8.35;;
27869;SDS011;15225;50.730;4.244;2023-04-07T21:00:56;18.48;;;6.93;;
27869;SDS011;15225;50.730;4.244;2023-04-07T21:03:24;22.80;;;5.32;;
27869;SDS011;15225;50.730;4.244;2023-04-07T21:05:50;23.35;;;7.38;;
27869;SDS011;15225;50.730;4.244;2023-04-07T21:08:16;17.15;;;6.50;;
27869;SDS011;15225;50.730;4.244;2023-04-07T21:10:44;21.83;;;7.55;;
27869;SDS011;15225;50.730;4.244;2023-04-07T21:13:09;21.08;;;7.75;;
27869;SDS011;15225;50.730;4.244;2023-04-07T21:15:35;14.50;;;6.32;;
27869;SDS011;15225;50.730;4.244;2023-04-07T21:18:01;17.25;;;6.55;;
27869;SDS011;15225;50.730;4.244;2023-04-07T21:20:28;15.18;;;5.78;;
